sensor_id;sensor_type;location;lat;lon;timestamp;pressure;altitude;pressure_sealevel;temperature;humidity
64876;BME280;51369;49.862;9.908;2023-03-11T00:00:27;96941.41;;;3.45;68.72
64876;BME280;51369;49.862;9.908;2023-03-11T00:02:55;96958.28;;;3.45;69.27
64876;BME280;51369;49.862;9.908;2023-03-11T00:05:32;96945.88;;;3.44;68.94
64876;BME280;51369;49.862;9.908;2023-03-11T00:07:59;96958.41;;;3.42;68.58
64876;BME280;51369;49.862;9.908;2023-03-11T00:10:30;96968.19;;;3.42;68.29
64876;BME280;51369;49.862;9.908;2023-03-11T00:12:57;96961.97;;;3.41;69.17
64876;BME280;51369;49.862;9.908;2023-03-11T00:15:23;96978.00;;;3.41;68.44
64876;BME280;51369;49.862;9.908;2023-03-11T00:17:48;96985.13;;;3.41;68.46
64876;BME280;51369;49.862;9.908;2023-03-11T00:20:29;96990.47;;;3.41;68.43
64876;BME280;51369;49.862;9.908;2023-03-11T00:22:55;96992.19;;;3.42;68.89
64876;BME280;51369;49.862;9.908;2023-03-11T00:25:22;97001.13;;;3.41;67.64
64876;BME280;51369;49.862;9.908;2023-03-11T00:27:48;97012.69;;;3.41;68.08
64876;BME280;51369;49.862;9.908;2023-03-11T00:30:14;97023.28;;;3.43;68.20
64876;BME280;51369;49.862;9.908;2023-03-11T00:32:41;97021.59;;;3.40;68.54
64876;BME280;51369;49.862;9.908;2023-03-11T00:35:09;97021.59;;;3.40;68.41
64876;BME280;51369;49.862;9.908;2023-03-11T00:37:36;97021.59;;;3.40;68.94
64876;BME280;51369;49.862;9.908;2023-03-11T00:40:02;97042.06;;;3.40;68.32
64876;BME280;51369;49.862;9.908;2023-03-11T00:42:33;97043.81;;;3.41;69.19
64876;BME280;51369;49.862;9.908;2023-03-11T00:44:59;97035.75;;;3.42;68.54
64876;BME280;51369;49.862;9.908;2023-03-11T00:47:25;97048.16;;;3.43;68.17
64876;BME280;51369;49.862;9.908;2023-03-11T00:49:50;97049.09;;;3.42;67.93
64876;BME280;51369;49.862;9.908;2023-03-11T00:52:16;97051.81;;;3.41;69.19
64876;BME280;51369;49.862;9.908;2023-03-11T00:54:42;97050.03;;;3.41;68.98
64876;BME280;51369;49.862;9.908;2023-03-11T00:57:07;97052.78;;;3.38;69.33
64876;BME280;51369;49.862;9.908;2023-03-11T00:59:34;97060.84;;;3.37;68.37
64876;BME280;51369;49.862;9.908;2023-03-11T01:01:59;97052.03;;;3.35;68.48
64876;BME280;51369;49.862;9.908;2023-03-11T01:04:25;97059.13;;;3.36;69.07
64876;BME280;51369;49.862;9.908;2023-03-11T01:06:51;97060.91;;;3.35;69.16
64876;BME280;51369;49.862;9.908;2023-03-11T01:09:17;97058.25;;;3.35;68.25
64876;BME280;51369;49.862;9.908;2023-03-11T01:11:42;97060.03;;;3.35;68.21
64876;BME280;51369;49.862;9.908;2023-03-11T01:14:08;97058.28;;;3.34;68.69
64876;BME280;51369;49.862;9.908;2023-03-11T01:16:33;97066.28;;;3.34;68.83
64876;BME280;51369;49.862;9.908;2023-03-11T01:18:59;97073.47;;;3.32;69.06
64876;BME280;51369;49.862;9.908;2023-03-11T01:21:25;97051.22;;;3.33;68.61
64876;BME280;51369;49.862;9.908;2023-03-11T01:23:50;97068.16;;;3.32;68.54
64876;BME280;51369;49.862;9.908;2023-03-11T01:26:16;97072.66;;;3.30;68.59
64876;BME280;51369;49.862;9.908;2023-03-11T01:28:41;97072.66;;;3.30;69.08
64876;BME280;51369;49.862;9.908;2023-03-11T01:31:09;97086.06;;;3.28;68.62
64876;BME280;51369;49.862;9.908;2023-03-11T01:33:35;97086.09;;;3.26;68.59
64876;BME280;51369;49.862;9.908;2023-03-11T01:36:00;97094.16;;;3.25;69.27
64876;BME280;51369;49.862;9.908;2023-03-11T01:38:26;97086.16;;;3.25;69.09
64876;BME280;51369;49.862;9.908;2023-03-11T01:40:52;97080.81;;;3.25;68.40
64876;BME280;51369;49.862;9.908;2023-03-11T01:48:57;97086.38;;;3.19;69.11
64876;BME280;51369;49.862;9.908;2023-03-11T01:51:31;97084.63;;;3.18;68.68
64876;BME280;51369;49.862;9.908;2023-03-11T01:54:01;97086.41;;;3.17;68.03
64876;BME280;51369;49.862;9.908;2023-03-11T01:56:27;97095.34;;;3.16;68.95
64876;BME280;51369;49.862;9.908;2023-03-11T01:58:53;97076.78;;;3.13;69.13
64876;BME280;51369;49.862;9.908;2023-03-11T02:01:21;97087.50;;;3.12;69.05
64876;BME280;51369;49.862;9.908;2023-03-11T02:03:46;97082.25;;;3.09;68.94
64876;BME280;51369;49.862;9.908;2023-03-11T02:06:18;97079.72;;;3.06;69.13
64876;BME280;51369;49.862;9.908;2023-03-11T02:08:45;97093.00;;;3.07;69.60
64876;BME280;51369;49.862;9.908;2023-03-11T02:11:16;97087.75;;;3.04;69.30
64876;BME280;51369;49.862;9.908;2023-03-11T02:13:43;97084.22;;;3.04;68.63
64876;BME280;51369;49.862;9.908;2023-03-11T02:16:09;97093.97;;;3.05;68.93
64876;BME280;51369;49.862;9.908;2023-03-11T02:18:36;97091.41;;;3.02;69.04
64876;BME280;51369;49.862;9.908;2023-03-11T02:27:00;97094.22;;;2.97;68.39
64876;BME280;51369;49.862;9.908;2023-03-11T02:29:28;97113.75;;;2.98;69.13
64876;BME280;51369;49.862;9.908;2023-03-11T02:31:57;97109.34;;;2.97;68.43
64876;BME280;51369;49.862;9.908;2023-03-11T02:34:27;97112.94;;;2.96;69.05
64876;BME280;51369;49.862;9.908;2023-03-11T02:36:53;97115.53;;;2.97;69.70
64876;BME280;51369;49.862;9.908;2023-03-11T02:39:29;97128.06;;;2.95;69.12
64876;BME280;51369;49.862;9.908;2023-03-11T02:41:57;97121.78;;;2.96;69.03
64876;BME280;51369;49.862;9.908;2023-03-11T02:44:22;97123.59;;;2.96;69.21
64876;BME280;51369;49.862;9.908;2023-03-11T02:46:48;97120.91;;;2.96;69.65
64876;BME280;51369;49.862;9.908;2023-03-11T02:49:14;97121.84;;;2.94;69.06
64876;BME280;51369;49.862;9.908;2023-03-11T02:51:40;97133.38;;;2.95;69.42
64876;BME280;51369;49.862;9.908;2023-03-11T02:54:05;97134.31;;;2.94;68.46
64876;BME280;51369;49.862;9.908;2023-03-11T02:56:32;97144.09;;;2.93;68.34
64876;BME280;51369;49.862;9.908;2023-03-11T02:58:58;97136.97;;;2.94;68.96
64876;BME280;51369;49.862;9.908;2023-03-11T03:01:23;97140.59;;;2.91;68.97
64876;BME280;51369;49.862;9.908;2023-03-11T03:03:49;97148.50;;;2.94;68.93
64876;BME280;51369;49.862;9.908;2023-03-11T03:06:14;97154.22;;;3.10;67.92
64876;BME280;51369;49.862;9.908;2023-03-11T03:08:40;97148.44;;;2.96;68.67
64876;BME280;51369;49.862;9.908;2023-03-11T03:11:05;97151.25;;;2.91;68.38
64876;BME280;51369;49.862;9.908;2023-03-11T03:13:31;97151.38;;;2.88;69.15
64876;BME280;51369;49.862;9.908;2023-03-11T03:15:57;97148.75;;;2.87;68.13
64876;BME280;51369;49.862;9.908;2023-03-11T03:18:23;97161.25;;;2.85;68.35
64876;BME280;51369;49.862;9.908;2023-03-11T03:20:50;97158.59;;;2.85;69.55
64876;BME280;51369;49.862;9.908;2023-03-11T03:23:17;97171.97;;;2.83;68.14
64876;BME280;51369;49.862;9.908;2023-03-11T03:25:44;97169.69;;;2.99;68.02
64876;BME280;51369;49.862;9.908;2023-03-11T03:28:11;97173.16;;;3.01;68.13
64876;BME280;51369;49.862;9.908;2023-03-11T03:30:40;97194.44;;;3.03;69.04
64876;BME280;51369;49.862;9.908;2023-03-11T03:33:07;97186.44;;;3.03;68.78
64876;BME280;51369;49.862;9.908;2023-03-11T03:35:33;97182.88;;;3.04;68.06
64876;BME280;51369;49.862;9.908;2023-03-11T03:38:20;97190.81;;;3.05;67.46
64876;BME280;51369;49.862;9.908;2023-03-11T03:40:48;97193.47;;;3.05;67.95
64876;BME280;51369;49.862;9.908;2023-03-11T03:43:17;97195.28;;;3.05;68.68
64876;BME280;51369;49.862;9.908;2023-03-11T03:45:44;97204.19;;;3.04;68.74
64876;BME280;51369;49.862;9.908;2023-03-11T03:48:09;97214.91;;;3.02;68.36
64876;BME280;51369;49.862;9.908;2023-03-11T03:50:39;97223.84;;;3.01;67.29
64876;BME280;51369;49.862;9.908;2023-03-11T03:53:05;97234.50;;;3.01;67.16
64876;BME280;51369;49.862;9.908;2023-03-11T03:55:30;97241.63;;;3.01;68.19
64876;BME280;51369;49.862;9.908;2023-03-11T03:57:56;97233.66;;;2.99;68.32
64876;BME280;51369;49.862;9.908;2023-03-11T04:00:24;97237.22;;;3.00;68.29
64876;BME280;51369;49.862;9.908;2023-03-11T04:02:56;97244.34;;;2.99;67.64
64876;BME280;51369;49.862;9.908;2023-03-11T04:05:28;97235.47;;;2.99;68.01
64876;BME280;51369;49.862;9.908;2023-03-11T04:07:54;97249.75;;;2.96;67.15
64876;BME280;51369;49.862;9.908;2023-03-11T04:10:20;97250.69;;;2.95;67.43
64876;BME280;51369;49.862;9.908;2023-03-11T04:12:46;97252.47;;;2.94;67.34
64876;BME280;51369;49.862;9.908;2023-03-11T04:15:13;97256.00;;;2.95;67.02
64876;BME280;51369;49.862;9.908;2023-03-11T04:17:41;97251.66;;;2.92;66.90
64876;BME280;51369;49.862;9.908;2023-03-11T04:20:07;97253.44;;;2.92;67.17
64876;BME280;51369;49.862;9.908;2023-03-11T04:22:34;97254.41;;;2.89;67.16
64876;BME280;51369;49.862;9.908;2023-03-11T04:24:59;97249.94;;;2.90;67.01
64876;BME280;51369;49.862;9.908;2023-03-11T04:27:26;97251.78;;;2.88;67.65
64876;BME280;51369;49.862;9.908;2023-03-11T04:29:51;97242.13;;;2.84;68.49
64876;BME280;51369;49.862;9.908;2023-03-11T04:32:17;97251.09;;;2.81;67.93
64876;BME280;51369;49.862;9.908;2023-03-11T04:34:44;97244.09;;;2.77;67.51
64876;BME280;51369;49.862;9.908;2023-03-11T04:37:11;97252.16;;;2.76;68.28
64876;BME280;51369;49.862;9.908;2023-03-11T04:39:37;97265.53;;;2.74;68.40
64876;BME280;51369;49.862;9.908;2023-03-11T04:42:02;97271.72;;;2.75;68.64
64876;BME280;51369;49.862;9.908;2023-03-11T04:44:28;97268.13;;;2.76;68.34
64876;BME280;51369;49.862;9.908;2023-03-11T04:46:53;97261.94;;;2.75;68.58
64876;BME280;51369;49.862;9.908;2023-03-11T04:49:19;97277.97;;;2.74;68.44
64876;BME280;51369;49.862;9.908;2023-03-11T04:51:45;97260.31;;;2.70;68.31
64876;BME280;51369;49.862;9.908;2023-03-11T04:54:13;97261.25;;;2.69;68.20
64876;BME280;51369;49.862;9.908;2023-03-11T04:56:39;97268.41;;;2.67;67.86
64876;BME280;51369;49.862;9.908;2023-03-11T04:59:05;97262.25;;;2.65;68.17
64876;BME280;51369;49.862;9.908;2023-03-11T05:01:33;97272.09;;;2.63;68.23
64876;BME280;51369;49.862;9.908;2023-03-11T05:04:01;97273.91;;;2.60;68.08
64876;BME280;51369;49.862;9.908;2023-03-11T05:06:27;97287.28;;;2.59;67.92
64876;BME280;51369;49.862;9.908;2023-03-11T05:08:52;97289.94;;;2.59;69.14
64876;BME280;51369;49.862;9.908;2023-03-11T05:11:18;97290.03;;;2.56;68.46
64876;BME280;51369;49.862;9.908;2023-03-11T05:13:45;97306.06;;;2.54;68.90
64876;BME280;51369;49.862;9.908;2023-03-11T05:16:11;97305.22;;;2.52;68.63
64876;BME280;51369;49.862;9.908;2023-03-11T05:18:37;97315.88;;;2.52;69.46
64876;BME280;51369;49.862;9.908;2023-03-11T05:21:03;97313.22;;;2.52;69.53
64876;BME280;51369;49.862;9.908;2023-03-11T05:23:31;97312.31;;;2.53;68.57
64876;BME280;51369;49.862;9.908;2023-03-11T05:25:57;97312.25;;;2.55;69.38
64876;BME280;51369;49.862;9.908;2023-03-11T05:28:22;97311.38;;;2.54;69.69
64876;BME280;51369;49.862;9.908;2023-03-11T05:30:50;97319.38;;;2.54;70.09
64876;BME280;51369;49.862;9.908;2023-03-11T05:33:17;97314.97;;;2.53;70.07
64876;BME280;51369;49.862;9.908;2023-03-11T05:35:43;97328.28;;;2.53;68.86
64876;BME280;51369;49.862;9.908;2023-03-11T05:38:08;97336.28;;;2.53;69.50
64876;BME280;51369;49.862;9.908;2023-03-11T05:40:34;97337.06;;;2.57;70.38
64876;BME280;51369;49.862;9.908;2023-03-11T05:42:59;97336.19;;;2.56;69.90
64876;BME280;51369;49.862;9.908;2023-03-11T05:45:27;97348.59;;;2.57;69.73
64876;BME280;51369;49.862;9.908;2023-03-11T05:47:55;97341.44;;;2.59;69.94
64876;BME280;51369;49.862;9.908;2023-03-11T05:50:20;97344.06;;;2.61;70.00
64876;BME280;51369;49.862;9.908;2023-03-11T05:52:48;97337.88;;;2.60;70.47
64876;BME280;51369;49.862;9.908;2023-03-11T05:55:14;97343.16;;;2.62;69.39
64876;BME280;51369;49.862;9.908;2023-03-11T05:57:42;97344.94;;;2.61;70.04
64876;BME280;51369;49.862;9.908;2023-03-11T06:00:08;97344.94;;;2.61;70.02
64876;BME280;51369;49.862;9.908;2023-03-11T06:02:44;97352.94;;;2.61;69.60
64876;BME280;51369;49.862;9.908;2023-03-11T06:05:14;97355.59;;;2.61;69.47
64876;BME280;51369;49.862;9.908;2023-03-11T06:07:41;97361.84;;;2.60;69.81
64876;BME280;51369;49.862;9.908;2023-03-11T06:10:07;97359.22;;;2.59;70.16
64876;BME280;51369;49.862;9.908;2023-03-11T06:12:33;97360.13;;;2.58;70.59
64876;BME280;51369;49.862;9.908;2023-03-11T06:15:18;97368.13;;;2.58;70.79
64876;BME280;51369;49.862;9.908;2023-03-11T06:17:43;97365.53;;;2.55;70.06
64876;BME280;51369;49.862;9.908;2023-03-11T06:20:09;97359.38;;;2.53;70.88
64876;BME280;51369;49.862;9.908;2023-03-11T06:22:35;97369.16;;;2.52;70.33
64876;BME280;51369;49.862;9.908;2023-03-11T06:25:01;97370.09;;;2.51;70.18
64876;BME280;51369;49.862;9.908;2023-03-11T06:27:29;97372.78;;;2.50;70.89
64876;BME280;51369;49.862;9.908;2023-03-11T06:29:54;97371.03;;;2.49;70.52
64876;BME280;51369;49.862;9.908;2023-03-11T06:32:21;97375.50;;;2.48;70.15
64876;BME280;51369;49.862;9.908;2023-03-11T06:34:51;97378.16;;;2.48;70.38
64876;BME280;51369;49.862;9.908;2023-03-11T06:37:17;97387.84;;;2.51;70.93
64876;BME280;51369;49.862;9.908;2023-03-11T06:39:43;97393.03;;;2.57;71.24
64876;BME280;51369;49.862;9.908;2023-03-11T06:42:14;97398.16;;;2.65;70.73
64876;BME280;51369;49.862;9.908;2023-03-11T06:44:40;97401.47;;;2.73;70.78
64876;BME280;51369;49.862;9.908;2023-03-11T06:47:06;97410.16;;;2.81;71.12
64876;BME280;51369;49.862;9.908;2023-03-11T06:49:31;97406.44;;;2.86;70.57
64876;BME280;51369;49.862;9.908;2023-03-11T06:51:57;97415.19;;;2.91;70.26
64876;BME280;51369;49.862;9.908;2023-03-11T06:54:22;97409.81;;;2.93;70.69
64876;BME280;51369;49.862;9.908;2023-03-11T06:56:48;97413.31;;;2.95;71.24
64876;BME280;51369;49.862;9.908;2023-03-11T06:59:14;97411.50;;;2.96;70.10
64876;BME280;51369;49.862;9.908;2023-03-11T07:01:39;97429.13;;;3.01;69.58
64876;BME280;51369;49.862;9.908;2023-03-11T07:04:06;97429.00;;;3.06;70.92
64876;BME280;51369;49.862;9.908;2023-03-11T07:06:34;97428.88;;;3.10;69.10
64876;BME280;51369;49.862;9.908;2023-03-11T07:09:07;97434.06;;;3.15;69.90
64876;BME280;51369;49.862;9.908;2023-03-11T07:11:36;97439.25;;;3.21;70.34
64876;BME280;51369;49.862;9.908;2023-03-11T07:14:08;97432.84;;;3.26;68.68
64876;BME280;51369;49.862;9.908;2023-03-11T07:16:37;97437.09;;;3.34;69.17
64876;BME280;51369;49.862;9.908;2023-03-11T07:19:08;97442.13;;;3.44;69.49
64876;BME280;51369;49.862;9.908;2023-03-11T07:21:34;97439.16;;;3.53;68.46
64876;BME280;51369;49.862;9.908;2023-03-11T07:24:00;97450.47;;;3.62;68.56
64876;BME280;51369;49.862;9.908;2023-03-11T07:26:28;97452.13;;;3.66;67.67
64876;BME280;51369;49.862;9.908;2023-03-11T07:28:55;97454.75;;;3.67;67.99
64876;BME280;51369;49.862;9.908;2023-03-11T07:31:26;97460.09;;;3.67;68.47
64876;BME280;51369;49.862;9.908;2023-03-11T07:33:52;97467.94;;;3.72;68.31
64876;BME280;51369;49.862;9.908;2023-03-11T07:36:20;97469.56;;;3.77;68.09
64876;BME280;51369;49.862;9.908;2023-03-11T07:38:46;97480.84;;;3.87;68.40
64876;BME280;51369;49.862;9.908;2023-03-11T07:41:13;97480.66;;;3.93;67.01
64876;BME280;51369;49.862;9.908;2023-03-11T07:43:40;97492.84;;;4.02;67.32
64876;BME280;51369;49.862;9.908;2023-03-11T07:46:09;97486.41;;;4.09;67.89
64876;BME280;51369;49.862;9.908;2023-03-11T07:48:37;97485.22;;;4.17;67.05
64876;BME280;51369;49.862;9.908;2023-03-11T07:51:05;97493.88;;;4.25;67.25
64876;BME280;51369;49.862;9.908;2023-03-11T07:53:31;97498.25;;;4.28;66.80
64876;BME280;51369;49.862;9.908;2023-03-11T07:55:57;97505.25;;;4.32;66.16
64876;BME280;51369;49.862;9.908;2023-03-11T07:58:23;97505.06;;;4.38;65.91
64876;BME280;51369;49.862;9.908;2023-03-11T08:00:49;97508.31;;;4.48;66.36
64876;BME280;51369;49.862;9.908;2023-03-11T08:03:15;97512.31;;;4.61;66.17
64876;BME280;51369;49.862;9.908;2023-03-11T08:05:40;97513.72;;;4.73;66.59
64876;BME280;51369;49.862;9.908;2023-03-11T08:08:06;97528.53;;;4.83;65.74
64876;BME280;51369;49.862;9.908;2023-03-11T08:10:32;97519.47;;;4.87;65.86
64876;BME280;51369;49.862;9.908;2023-03-11T08:13:00;97527.25;;;4.95;65.11
64876;BME280;51369;49.862;9.908;2023-03-11T08:15:25;97527.81;;;5.04;65.19
64876;BME280;51369;49.862;9.908;2023-03-11T08:17:50;97525.63;;;5.15;64.97
64876;BME280;51369;49.862;9.908;2023-03-11T08:20:16;97538.63;;;5.26;64.61
64876;BME280;51369;49.862;9.908;2023-03-11T08:22:41;97535.56;;;5.37;64.06
64876;BME280;51369;49.862;9.908;2023-03-11T08:25:07;97533.31;;;5.49;64.21
64876;BME280;51369;49.862;9.908;2023-03-11T08:27:32;97536.59;;;5.57;62.52
64876;BME280;51369;49.862;9.908;2023-03-11T08:29:58;97540.84;;;5.63;62.86
64876;BME280;51369;49.862;9.908;2023-03-11T08:32:23;97538.94;;;5.67;62.94
64876;BME280;51369;49.862;9.908;2023-03-11T08:34:49;97541.63;;;5.67;62.72
64876;BME280;51369;49.862;9.908;2023-03-11T08:37:14;97544.34;;;5.65;62.01
64876;BME280;51369;49.862;9.908;2023-03-11T08:39:39;97540.91;;;5.62;62.53
64876;BME280;51369;49.862;9.908;2023-03-11T08:42:05;97544.50;;;5.61;62.81
64876;BME280;51369;49.862;9.908;2023-03-11T08:44:30;97552.44;;;5.64;62.41
64876;BME280;51369;49.862;9.908;2023-03-11T08:46:56;97557.84;;;5.62;61.40
64876;BME280;51369;49.862;9.908;2023-03-11T08:49:21;97551.06;;;5.52;61.92
64876;BME280;51369;49.862;9.908;2023-03-11T08:51:47;97549.66;;;5.42;63.12
64876;BME280;51369;49.862;9.908;2023-03-11T08:54:12;97552.38;;;5.40;63.01
64876;BME280;51369;49.862;9.908;2023-03-11T08:56:38;97556.88;;;5.40;62.18
64876;BME280;51369;49.862;9.908;2023-03-11T08:59:03;97560.56;;;5.36;60.91
64876;BME280;51369;49.862;9.908;2023-03-11T09:01:29;97570.47;;;5.34;60.93
64876;BME280;51369;49.862;9.908;2023-03-11T09:03:54;97579.31;;;5.36;61.27
64876;BME280;51369;49.862;9.908;2023-03-11T09:06:20;97570.19;;;5.41;62.32
64876;BME280;51369;49.862;9.908;2023-03-11T09:08:47;97569.88;;;5.50;62.99
64876;BME280;51369;49.862;9.908;2023-03-11T09:11:13;97580.09;;;5.64;63.19
64876;BME280;51369;49.862;9.908;2023-03-11T09:13:42;97579.66;;;5.76;62.67
64876;BME280;51369;49.862;9.908;2023-03-11T09:16:13;97584.03;;;5.79;61.05
64876;BME280;51369;49.862;9.908;2023-03-11T09:18:39;97587.56;;;5.79;62.27
64876;BME280;51369;49.862;9.908;2023-03-11T09:21:04;97594.78;;;5.77;62.48
64876;BME280;51369;49.862;9.908;2023-03-11T09:23:30;97584.19;;;5.74;61.10
64876;BME280;51369;49.862;9.908;2023-03-11T09:25:55;97585.94;;;5.75;60.65
64876;BME280;51369;49.862;9.908;2023-03-11T09:28:21;97599.16;;;5.80;61.64
64876;BME280;51369;49.862;9.908;2023-03-11T09:30:46;97602.66;;;5.82;59.76
64876;BME280;51369;49.862;9.908;2023-03-11T09:33:11;97604.31;;;5.86;59.98
64876;BME280;51369;49.862;9.908;2023-03-11T09:35:38;97605.22;;;5.85;59.66
64876;BME280;51369;49.862;9.908;2023-03-11T09:38:04;97601.91;;;5.78;60.01
64876;BME280;51369;49.862;9.908;2023-03-11T09:41:01;97600.59;;;5.65;60.97
64876;BME280;51369;49.862;9.908;2023-03-11T09:46:55;97606.75;;;5.42;62.68
64876;BME280;51369;49.862;9.908;2023-03-11T09:52:14;97630.28;;;5.33;62.42
64876;BME280;51369;49.862;9.908;2023-03-11T09:54:48;97628.56;;;5.30;62.07
64876;BME280;51369;49.862;9.908;2023-03-11T09:57:23;97623.16;;;5.32;62.44
64876;BME280;51369;49.862;9.908;2023-03-11T09:59:50;97620.44;;;5.33;62.04
64876;BME280;51369;49.862;9.908;2023-03-11T10:02:22;97627.75;;;5.28;60.90
64876;BME280;51369;49.862;9.908;2023-03-11T10:05:02;97622.41;;;5.28;60.97
64876;BME280;51369;49.862;9.908;2023-03-11T10:07:39;97626.56;;;5.37;60.47
64876;BME280;51369;49.862;9.908;2023-03-11T10:10:11;97613.91;;;5.42;60.22
64876;BME280;51369;49.862;9.908;2023-03-11T10:18:15;97623.06;;;5.86;58.58
64876;BME280;51369;49.862;9.908;2023-03-11T10:20:59;97623.56;;;5.97;58.04
64876;BME280;51369;49.862;9.908;2023-03-11T10:26:14;97614.00;;;5.90;56.68
64876;BME280;51369;49.862;9.908;2023-03-11T10:28:48;97622.69;;;5.97;58.53
64876;BME280;51369;49.862;9.908;2023-03-11T10:31:22;97625.25;;;6.00;59.08
64876;BME280;51369;49.862;9.908;2023-03-11T10:33:59;97626.97;;;6.02;59.55
64876;BME280;51369;49.862;9.908;2023-03-11T10:36:34;97626.84;;;6.05;59.28
64876;BME280;51369;49.862;9.908;2023-03-11T10:39:03;97624.06;;;6.08;59.36
64876;BME280;51369;49.862;9.908;2023-03-11T10:41:41;97630.81;;;6.18;58.60
64876;BME280;51369;49.862;9.908;2023-03-11T10:44:14;97631.34;;;6.51;58.87
64876;BME280;51369;49.862;9.908;2023-03-11T10:46:43;97629.09;;;6.86;59.21
64876;BME280;51369;49.862;9.908;2023-03-11T10:49:13;97635.34;;;7.08;58.18
64876;BME280;51369;49.862;9.908;2023-03-11T10:51:41;97634.03;;;7.18;58.32
64876;BME280;51369;49.862;9.908;2023-03-11T10:54:24;97641.25;;;7.16;57.89
64876;BME280;51369;49.862;9.908;2023-03-11T10:56:55;97646.13;;;7.07;56.54
64876;BME280;51369;49.862;9.908;2023-03-11T11:01:58;97637.69;;;6.72;54.89
64876;BME280;51369;49.862;9.908;2023-03-11T11:04:37;97638.94;;;6.64;55.42
64876;BME280;51369;49.862;9.908;2023-03-11T11:07:31;97632.94;;;6.57;55.95
64876;BME280;51369;49.862;9.908;2023-03-11T11:15:25;97633.34;;;6.46;54.85
64876;BME280;51369;49.862;9.908;2023-03-11T11:17:52;97633.47;;;6.43;54.63
64876;BME280;51369;49.862;9.908;2023-03-11T11:20:20;97639.75;;;6.42;54.84
64876;BME280;51369;49.862;9.908;2023-03-11T11:22:57;97646.16;;;6.38;54.31
64876;BME280;51369;49.862;9.908;2023-03-11T11:25:43;97646.28;;;6.35;54.18
64876;BME280;51369;49.862;9.908;2023-03-11T11:28:19;97645.34;;;6.36;54.70
64876;BME280;51369;49.862;9.908;2023-03-11T11:34:13;97634.91;;;6.29;55.44
64876;BME280;51369;49.862;9.908;2023-03-11T11:36:14;97647.66;;;6.22;54.42
64876;BME280;51369;49.862;9.908;2023-03-11T11:38:41;97646.97;;;6.17;55.67
64876;BME280;51369;49.862;9.908;2023-03-11T11:41:13;97649.88;;;6.11;56.62
64876;BME280;51369;49.862;9.908;2023-03-11T11:43:48;97651.19;;;5.99;56.14
64876;BME280;51369;49.862;9.908;2023-03-11T11:46:21;97649.78;;;5.87;55.68
64876;BME280;51369;49.862;9.908;2023-03-11T11:48:55;97655.53;;;5.77;55.26
64876;BME280;51369;49.862;9.908;2023-03-11T11:51:32;97643.28;;;5.70;56.21
64876;BME280;51369;49.862;9.908;2023-03-11T11:54:01;97645.13;;;5.68;56.32
64876;BME280;51369;49.862;9.908;2023-03-11T11:56:32;97655.72;;;5.71;56.71
64876;BME280;51369;49.862;9.908;2023-03-11T11:58:58;97646.72;;;5.73;56.71
64876;BME280;51369;49.862;9.908;2023-03-11T12:07:48;97659.56;;;5.90;55.77
64876;BME280;51369;49.862;9.908;2023-03-11T12:09:57;97657.47;;;5.98;56.09
64876;BME280;51369;49.862;9.908;2023-03-11T12:12:31;97660.16;;;5.98;55.44
64876;BME280;51369;49.862;9.908;2023-03-11T12:17:28;97667.81;;;6.09;56.19
64876;BME280;51369;49.862;9.908;2023-03-11T12:19:59;97656.16;;;6.10;55.84
64876;BME280;51369;49.862;9.908;2023-03-11T12:23:00;97660.81;;;6.05;55.00
64876;BME280;51369;49.862;9.908;2023-03-11T12:26:03;97654.63;;;6.03;54.62
64876;BME280;51369;49.862;9.908;2023-03-11T12:28:46;97655.63;;;6.00;56.17
64876;BME280;51369;49.862;9.908;2023-03-11T12:31:14;97655.63;;;6.00;54.95
64876;BME280;51369;49.862;9.908;2023-03-11T12:33:46;97658.41;;;5.97;54.75
64876;BME280;51369;49.862;9.908;2023-03-11T12:38:57;97653.81;;;6.01;54.85
64876;BME280;51369;49.862;9.908;2023-03-11T12:44:03;97663.22;;;6.12;54.89
64876;BME280;51369;49.862;9.908;2023-03-11T12:49:27;97654.47;;;6.07;53.59
64876;BME280;51369;49.862;9.908;2023-03-11T12:54:40;97660.88;;;6.03;54.11
64876;BME280;51369;49.862;9.908;2023-03-11T13:05:36;97667.25;;;5.99;54.57
64876;BME280;51369;49.862;9.908;2023-03-11T13:08:15;97653.97;;;5.96;54.17
64876;BME280;51369;49.862;9.908;2023-03-11T13:10:43;97659.44;;;5.93;54.19
64876;BME280;51369;49.862;9.908;2023-03-11T13:15:54;97663.34;;;5.83;54.71
64876;BME280;51369;49.862;9.908;2023-03-11T13:18:26;97667.94;;;5.79;54.66
64876;BME280;51369;49.862;9.908;2023-03-11T13:20:58;97667.09;;;5.77;55.65
64876;BME280;51369;49.862;9.908;2023-03-11T13:23:29;97674.22;;;5.78;55.55
64876;BME280;51369;49.862;9.908;2023-03-11T13:28:53;97687.56;;;5.80;56.32
64876;BME280;51369;49.862;9.908;2023-03-11T13:34:46;97686.84;;;5.75;56.50
64876;BME280;51369;49.862;9.908;2023-03-11T13:37:24;97690.38;;;5.75;56.60
64876;BME280;51369;49.862;9.908;2023-03-11T13:40:10;97686.78;;;5.76;56.25
64876;BME280;51369;49.862;9.908;2023-03-11T13:42:53;97695.81;;;5.74;56.05
64876;BME280;51369;49.862;9.908;2023-03-11T13:45:31;97692.34;;;5.70;55.31
64876;BME280;51369;49.862;9.908;2023-03-11T13:48:06;97695.09;;;5.69;55.63
64876;BME280;51369;49.862;9.908;2023-03-11T13:50:40;97688.91;;;5.67;54.71
64876;BME280;51369;49.862;9.908;2023-03-11T13:53:16;97687.97;;;5.68;55.92
64876;BME280;51369;49.862;9.908;2023-03-11T13:55:44;97695.81;;;5.74;55.34
64876;BME280;51369;49.862;9.908;2023-03-11T13:58:31;97690.44;;;5.74;55.37
64876;BME280;51369;49.862;9.908;2023-03-11T14:00:58;97698.16;;;5.83;56.10
64876;BME280;51369;49.862;9.908;2023-03-11T14:03:27;97698.84;;;5.90;56.16
64876;BME280;51369;49.862;9.908;2023-03-11T14:05:59;97701.31;;;5.96;56.03
64876;BME280;51369;49.862;9.908;2023-03-11T14:08:36;97695.75;;;6.02;56.69
64876;BME280;51369;49.862;9.908;2023-03-11T14:11:26;97704.50;;;6.07;55.45
64876;BME280;51369;49.862;9.908;2023-03-11T14:13:53;97696.25;;;6.13;55.32
64876;BME280;51369;49.862;9.908;2023-03-11T14:16:35;97708.59;;;6.17;55.79
64876;BME280;51369;49.862;9.908;2023-03-11T14:19:15;97719.09;;;6.23;55.67
64876;BME280;51369;49.862;9.908;2023-03-11T14:21:46;97717.25;;;6.25;54.40
64876;BME280;51369;49.862;9.908;2023-03-11T14:24:27;97724.31;;;6.28;54.26
64876;BME280;51369;49.862;9.908;2023-03-11T14:26:55;97725.94;;;6.32;55.11
64876;BME280;51369;49.862;9.908;2023-03-11T14:29:39;97728.47;;;6.36;54.15
64876;BME280;51369;49.862;9.908;2023-03-11T14:32:16;97725.56;;;6.42;55.41